Martinsburg, WV (25401)

1:40 PM EDT on October 02, 2014 (GMT -0400)
Lost Road | Change Station
CLOSE
Current Station
Personal Weather Station
Location: Martinsburg, WV
Elevation: 540 ft
Nearby Weather Stations

Elev 540 ft 39.47 °N, 78.01 °W | Updated 4 seconds ago

Mostly Cloudy
Mostly Cloudy
70.4 °F
Feels Like 72 °F
N
0.0
Wind Variable Wind from North
Gusts 2.0 mph

Today
High -- | Low -- °F
--% Chance of Precip.
Yesterday
High -- | Low -- °F
Precip. -- in
7:08 AM 6:52 PM
First Quarter, 60% visible
Pressure 30.12 in
Visibility 8.0 miles
Clouds Scattered Clouds 3000 ft
Heat Index 72 °F
Dew Point 63 °F
Humidity 78%
Rainfall 0.00 in
Snow Depth Not available.
UV 5 out of 12
Pollen 3.60 out of 12
Air Quality Not available.
Flu Activity Not available.
SPECI KMRB 021718Z 00000KT 8SM SCT030 22/14 A3012 RMK AO2 T02170144

More Conditions Fewer Conditions

Pressure 30.12 in
Visibility 8.0 miles
Clouds Scattered Clouds 3000 ft
Heat Index 72 °F
Dew Point 63 °F
Humidity 78%
Rainfall 0.00 in
Snow Depth Not available.
UV 5 out of 12
Pollen 3.60 out of 12
Air Quality Not available.
Flu Activity Not available.
SPECI KMRB 021718Z 00000KT 8SM SCT030 22/14 A3012 RMK AO2 T02170144

More Conditions Fewer Conditions

10-Day Weather Forecast

Almanac

Astronomy

Oct. 02, 2014 Rise Set
Actual Time 7:08 AM EDT 6:52 PM EDT
Civil Twilight 6:42 AM EDT 7:19 PM EDT
Nautical Twilight 6:10 AM EDT 7:50 PM EDT
Astronomical Twilight 5:39 AM EDT 8:21 PM EDT
Moon 2:56 PM EDT 12:25 AM EDT
Length of Visible Light 12h 37m
Length of Day
11h 43m
Tomorrow will be 2m 33s shorter.
First Quarter, 60% of the Moon is Illuminated
Today
First Quarter
Oct 8
Full
Oct 15
Last Quarter
Oct 23
New
Oct 30
First Quarter

Today's Extremes

State Highs State Lows

Community

WunderPhotos

Upload Photos

1,758,312 photos uploaded!

Nearby

Snow Depth

Station Depth Elevation
No new snow has been reported.

Earthquake Activity

City Distance Mag. Time & Date
No recent earthquake activity has been reported nearby.
Minimum magnitude displayed is 2.5.

Coastal Water Temperatures

Place Temperature
No Stations Reporting

Nearby Weather Stations